Panora, IA (50216)

10:53 AM CDT on July 06, 2015 (GMT -0500)
IEM | | Change Station
CLOSE
Current Station
Personal Weather Station
Location: Panora, IA
Elevation: 1169 ft
Nearby Weather Stations

Elev 1169 ft 41.70 °N, 94.37 °W | Updated 25 minutes ago

Mostly Cloudy
Mostly Cloudy
75 °F
Feels Like 77 °F
N
0
Wind Variable Wind from North
Gusts 0.0 mph

Today
High -- | Low -- °F
--% Chance of Precip.
Yesterday
High -- | Low -- °F
Precip. -- in
5:49 AM 8:54 PM
Waning Gibbous, 74% visible
Pressure 29.86 in
Visibility 10.0 miles
Clouds Scattered Clouds 300 ft
Scattered Clouds 1500 ft
Scattered Clouds 3400 ft
Heat Index 77 °F
Dew Point 64 °F
Humidity 69%
Rainfall in
Snow Depth Not available.
UV 6 out of 12
Pollen 1.30 out of 12
Air Quality Not available.
Flu Activity Not available.
METAR KPRO 061535Z AUTO 13003KT 10SM -DZ SCT003 SCT015 SCT034 23/23 A2986 RMK AO2 T02340226

More Conditions Fewer Conditions

Pressure 29.86 in
Visibility 10.0 miles
Clouds Scattered Clouds 300 ft
Scattered Clouds 1500 ft
Scattered Clouds 3400 ft
Heat Index 77 °F
Dew Point 64 °F
Humidity 69%
Rainfall in
Snow Depth Not available.
UV 6 out of 12
Pollen 1.30 out of 12
Air Quality Not available.
Flu Activity Not available.
METAR KPRO 061535Z AUTO 13003KT 10SM -DZ SCT003 SCT015 SCT034 23/23 A2986 RMK AO2 T02340226

More Conditions Fewer Conditions

10-Day Weather Forecast

×

Almanac

Astronomy

Jul. 06, 2015 Rise Set
Actual Time
Civil Twilight
Nautical Twilight
Astronomical Twilight
Moon
Length of Visible Light
Length of Day
Tomorrow will be .
, % of the Moon is Illuminated

Today's Extremes

State Highs State Lows

Community

WunderPhotos

Upload Photos

1,835,576 photos uploaded!

WunderBlogs® & News

Nearby

Air Quality

  Air Quality AQ Index Pollutant
Not available.

Snow Depth

Station Depth Elevation

Earthquake Activity

City Distance Mag. Time & Date
Minimum magnitude displayed is 2.5.

Coastal Water Temperatures

Place Temperature

Stations

Nearby Weather Stations

Station Location Temp. Windchill Dew Point Humidity Wind Precip. Elev Updated Type